sensor_id;sensor_type;location;lat;lon;timestamp;P1;durP1;ratioP1;P2;durP2;ratioP2
81627;SDS011;71036;51.102;6.514;2023-11-19T00:00:09;2.80;;;1.40;;
81627;SDS011;71036;51.102;6.514;2023-11-19T00:02:40;1.57;;;1.20;;
81627;SDS011;71036;51.102;6.514;2023-11-19T00:05:05;5.10;;;1.63;;
81627;SDS011;71036;51.102;6.514;2023-11-19T00:07:34;1.50;;;1.00;;
81627;SDS011;71036;51.102;6.514;2023-11-19T00:09:59;2.03;;;1.30;;
81627;SDS011;71036;51.102;6.514;2023-11-19T00:12:34;3.23;;;0.83;;
81627;SDS011;71036;51.102;6.514;2023-11-19T00:15:00;3.60;;;0.80;;
81627;SDS011;71036;51.102;6.514;2023-11-19T00:17:25;1.30;;;0.87;;
81627;SDS011;71036;51.102;6.514;2023-11-19T00:19:50;1.13;;;0.97;;
81627;SDS011;71036;51.102;6.514;2023-11-19T00:22:16;1.97;;;1.13;;
81627;SDS011;71036;51.102;6.514;2023-11-19T00:24:41;1.17;;;1.07;;
81627;SDS011;71036;51.102;6.514;2023-11-19T00:27:06;6.70;;;1.63;;
81627;SDS011;71036;51.102;6.514;2023-11-19T00:29:32;2.93;;;0.77;;
81627;SDS011;71036;51.102;6.514;2023-11-19T00:31:57;0.80;;;0.70;;
81627;SDS011;71036;51.102;6.514;2023-11-19T00:34:23;1.73;;;0.77;;
81627;SDS011;71036;51.102;6.514;2023-11-19T00:36:48;0.90;;;0.80;;
81627;SDS011;71036;51.102;6.514;2023-11-19T00:39:13;3.90;;;0.90;;
81627;SDS011;71036;51.102;6.514;2023-11-19T00:41:40;1.30;;;0.67;;
81627;SDS011;71036;51.102;6.514;2023-11-19T00:44:05;0.90;;;0.50;;
81627;SDS011;71036;51.102;6.514;2023-11-19T00:46:30;1.10;;;0.60;;
81627;SDS011;71036;51.102;6.514;2023-11-19T00:48:56;0.80;;;0.50;;
81627;SDS011;71036;51.102;6.514;2023-11-19T00:51:25;0.70;;;0.40;;
81627;SDS011;71036;51.102;6.514;2023-11-19T00:53:51;1.73;;;0.80;;
81627;SDS011;71036;51.102;6.514;2023-11-19T00:56:16;0.80;;;0.47;;
81627;SDS011;71036;51.102;6.514;2023-11-19T00:58:42;1.00;;;0.77;;
81627;SDS011;71036;51.102;6.514;2023-11-19T01:01:07;0.70;;;0.57;;
81627;SDS011;71036;51.102;6.514;2023-11-19T01:03:32;6.90;;;0.60;;
81627;SDS011;71036;51.102;6.514;2023-11-19T01:05:58;1.10;;;0.77;;
81627;SDS011;71036;51.102;6.514;2023-11-19T01:08:24;1.10;;;0.50;;
81627;SDS011;71036;51.102;6.514;2023-11-19T01:10:49;0.70;;;0.52;;
81627;SDS011;71036;51.102;6.514;2023-11-19T01:13:15;0.80;;;0.60;;
81627;SDS011;71036;51.102;6.514;2023-11-19T01:15:40;1.98;;;0.50;;
81627;SDS011;71036;51.102;6.514;2023-11-19T01:18:06;3.13;;;0.70;;
81627;SDS011;71036;51.102;6.514;2023-11-19T01:20:32;1.67;;;0.70;;
81627;SDS011;71036;51.102;6.514;2023-11-19T01:22:59;1.97;;;0.63;;
81627;SDS011;71036;51.102;6.514;2023-11-19T01:25:24;2.70;;;0.88;;
81627;SDS011;71036;51.102;6.514;2023-11-19T01:27:49;2.65;;;0.63;;
81627;SDS011;71036;51.102;6.514;2023-11-19T01:30:15;1.30;;;0.80;;
81627;SDS011;71036;51.102;6.514;2023-11-19T01:32:40;1.23;;;0.77;;
81627;SDS011;71036;51.102;6.514;2023-11-19T01:35:05;4.13;;;1.50;;
81627;SDS011;71036;51.102;6.514;2023-11-19T01:37:30;5.23;;;1.23;;
81627;SDS011;71036;51.102;6.514;2023-11-19T01:39:57;7.90;;;1.10;;
81627;SDS011;71036;51.102;6.514;2023-11-19T01:42:22;0.93;;;0.83;;
81627;SDS011;71036;51.102;6.514;2023-11-19T01:44:59;2.47;;;1.13;;
81627;SDS011;71036;51.102;6.514;2023-11-19T01:47:25;1.63;;;1.10;;
81627;SDS011;71036;51.102;6.514;2023-11-19T01:49:50;6.10;;;1.50;;
81627;SDS011;71036;51.102;6.514;2023-11-19T01:52:16;4.53;;;1.67;;
81627;SDS011;71036;51.102;6.514;2023-11-19T01:54:41;2.70;;;1.10;;
81627;SDS011;71036;51.102;6.514;2023-11-19T01:57:06;5.27;;;1.20;;
81627;SDS011;71036;51.102;6.514;2023-11-19T01:59:31;4.73;;;1.47;;
81627;SDS011;71036;51.102;6.514;2023-11-19T02:01:56;11.93;;;2.03;;
81627;SDS011;71036;51.102;6.514;2023-11-19T02:04:22;5.37;;;1.70;;
81627;SDS011;71036;51.102;6.514;2023-11-19T02:06:47;4.57;;;1.77;;
81627;SDS011;71036;51.102;6.514;2023-11-19T02:09:13;11.00;;;2.17;;
81627;SDS011;71036;51.102;6.514;2023-11-19T02:11:41;6.00;;;2.05;;
81627;SDS011;71036;51.102;6.514;2023-11-19T02:14:06;10.93;;;2.10;;
81627;SDS011;71036;51.102;6.514;2023-11-19T02:16:31;6.13;;;2.20;;
81627;SDS011;71036;51.102;6.514;2023-11-19T02:18:57;6.47;;;1.60;;
81627;SDS011;71036;51.102;6.514;2023-11-19T02:21:22;14.00;;;1.92;;
81627;SDS011;71036;51.102;6.514;2023-11-19T02:23:47;6.60;;;1.83;;
81627;SDS011;71036;51.102;6.514;2023-11-19T02:26:23;13.73;;;2.67;;
81627;SDS011;71036;51.102;6.514;2023-11-19T02:28:51;12.43;;;2.40;;
81627;SDS011;71036;51.102;6.514;2023-11-19T02:31:17;7.63;;;1.37;;
81627;SDS011;71036;51.102;6.514;2023-11-19T02:33:44;16.43;;;2.20;;
81627;SDS011;71036;51.102;6.514;2023-11-19T02:36:09;9.38;;;2.00;;
81627;SDS011;71036;51.102;6.514;2023-11-19T02:38:34;7.73;;;2.53;;
81627;SDS011;71036;51.102;6.514;2023-11-19T02:41:02;14.33;;;2.53;;
81627;SDS011;71036;51.102;6.514;2023-11-19T02:43:28;11.47;;;2.37;;
81627;SDS011;71036;51.102;6.514;2023-11-19T02:45:53;11.83;;;2.60;;
81627;SDS011;71036;51.102;6.514;2023-11-19T02:48:20;13.00;;;2.13;;
81627;SDS011;71036;51.102;6.514;2023-11-19T02:50:46;5.53;;;1.53;;
81627;SDS011;71036;51.102;6.514;2023-11-19T02:53:12;12.77;;;2.17;;
81627;SDS011;71036;51.102;6.514;2023-11-19T02:55:38;7.10;;;2.00;;
81627;SDS011;71036;51.102;6.514;2023-11-19T02:58:05;11.07;;;3.23;;
81627;SDS011;71036;51.102;6.514;2023-11-19T03:00:44;10.33;;;1.67;;
81627;SDS011;71036;51.102;6.514;2023-11-19T03:03:17;12.63;;;2.30;;
81627;SDS011;71036;51.102;6.514;2023-11-19T03:05:47;8.83;;;1.87;;
81627;SDS011;71036;51.102;6.514;2023-11-19T03:08:12;13.47;;;1.70;;
81627;SDS011;71036;51.102;6.514;2023-11-19T03:10:38;16.37;;;2.10;;
81627;SDS011;71036;51.102;6.514;2023-11-19T03:13:03;8.77;;;1.40;;
81627;SDS011;71036;51.102;6.514;2023-11-19T03:15:29;6.47;;;1.77;;
81627;SDS011;71036;51.102;6.514;2023-11-19T03:17:54;6.32;;;1.85;;
81627;SDS011;71036;51.102;6.514;2023-11-19T03:20:19;9.50;;;2.67;;
81627;SDS011;71036;51.102;6.514;2023-11-19T03:22:45;6.27;;;1.80;;
81627;SDS011;71036;51.102;6.514;2023-11-19T03:25:10;8.93;;;1.63;;
81627;SDS011;71036;51.102;6.514;2023-11-19T03:27:36;15.47;;;2.03;;
81627;SDS011;71036;51.102;6.514;2023-11-19T03:30:02;23.33;;;2.50;;
81627;SDS011;71036;51.102;6.514;2023-11-19T03:32:29;19.13;;;4.03;;
81627;SDS011;71036;51.102;6.514;2023-11-19T03:34:54;9.55;;;1.60;;
81627;SDS011;71036;51.102;6.514;2023-11-19T03:37:20;21.10;;;3.40;;
81627;SDS011;71036;51.102;6.514;2023-11-19T03:39:45;19.95;;;3.17;;
81627;SDS011;71036;51.102;6.514;2023-11-19T03:42:10;23.27;;;2.55;;
81627;SDS011;71036;51.102;6.514;2023-11-19T03:44:38;20.07;;;2.83;;
81627;SDS011;71036;51.102;6.514;2023-11-19T03:47:03;17.47;;;1.90;;
81627;SDS011;71036;51.102;6.514;2023-11-19T03:49:28;19.90;;;3.37;;
81627;SDS011;71036;51.102;6.514;2023-11-19T03:51:53;14.85;;;2.90;;
81627;SDS011;71036;51.102;6.514;2023-11-19T03:54:18;14.23;;;2.23;;
81627;SDS011;71036;51.102;6.514;2023-11-19T03:56:44;21.70;;;2.60;;
81627;SDS011;71036;51.102;6.514;2023-11-19T03:59:09;16.67;;;2.45;;
81627;SDS011;71036;51.102;6.514;2023-11-19T04:01:34;22.50;;;3.00;;
81627;SDS011;71036;51.102;6.514;2023-11-19T04:04:00;14.03;;;2.60;;
81627;SDS011;71036;51.102;6.514;2023-11-19T04:06:25;16.57;;;2.90;;
81627;SDS011;71036;51.102;6.514;2023-11-19T04:08:50;13.83;;;2.33;;
81627;SDS011;71036;51.102;6.514;2023-11-19T04:11:16;13.15;;;2.45;;
81627;SDS011;71036;51.102;6.514;2023-11-19T04:13:41;16.70;;;2.60;;
81627;SDS011;71036;51.102;6.514;2023-11-19T04:16:06;16.67;;;2.63;;
81627;SDS011;71036;51.102;6.514;2023-11-19T04:18:32;16.10;;;3.10;;
81627;SDS011;71036;51.102;6.514;2023-11-19T04:20:57;18.20;;;2.47;;
81627;SDS011;71036;51.102;6.514;2023-11-19T04:23:22;17.00;;;2.08;;
81627;SDS011;71036;51.102;6.514;2023-11-19T04:25:47;33.25;;;2.83;;
81627;SDS011;71036;51.102;6.514;2023-11-19T04:28:12;21.60;;;2.70;;
81627;SDS011;71036;51.102;6.514;2023-11-19T04:30:37;21.88;;;1.92;;
81627;SDS011;71036;51.102;6.514;2023-11-19T04:33:02;10.40;;;2.28;;
81627;SDS011;71036;51.102;6.514;2023-11-19T04:35:28;36.37;;;3.50;;
81627;SDS011;71036;51.102;6.514;2023-11-19T04:37:53;22.63;;;2.33;;
81627;SDS011;71036;51.102;6.514;2023-11-19T04:40:18;15.93;;;2.40;;
81627;SDS011;71036;51.102;6.514;2023-11-19T04:42:43;17.97;;;2.70;;
81627;SDS011;71036;51.102;6.514;2023-11-19T04:45:09;12.65;;;2.95;;
81627;SDS011;71036;51.102;6.514;2023-11-19T04:47:35;18.20;;;2.23;;
81627;SDS011;71036;51.102;6.514;2023-11-19T04:50:00;11.23;;;2.50;;
81627;SDS011;71036;51.102;6.514;2023-11-19T04:52:25;19.88;;;2.63;;
81627;SDS011;71036;51.102;6.514;2023-11-19T04:54:50;19.80;;;2.53;;
81627;SDS011;71036;51.102;6.514;2023-11-19T04:57:16;19.37;;;2.90;;
81627;SDS011;71036;51.102;6.514;2023-11-19T04:59:41;26.70;;;2.73;;
81627;SDS011;71036;51.102;6.514;2023-11-19T05:02:07;14.50;;;3.22;;
81627;SDS011;71036;51.102;6.514;2023-11-19T05:04:33;16.20;;;2.70;;
81627;SDS011;71036;51.102;6.514;2023-11-19T05:06:58;17.27;;;2.93;;
81627;SDS011;71036;51.102;6.514;2023-11-19T05:09:23;18.10;;;3.25;;
81627;SDS011;71036;51.102;6.514;2023-11-19T05:11:48;15.82;;;2.95;;
81627;SDS011;71036;51.102;6.514;2023-11-19T05:14:13;11.93;;;2.47;;
81627;SDS011;71036;51.102;6.514;2023-11-19T05:16:41;16.43;;;2.20;;
81627;SDS011;71036;51.102;6.514;2023-11-19T05:19:07;18.40;;;4.10;;
81627;SDS011;71036;51.102;6.514;2023-11-19T05:21:33;14.27;;;2.70;;
81627;SDS011;71036;51.102;6.514;2023-11-19T05:23:59;22.10;;;2.87;;
81627;SDS011;71036;51.102;6.514;2023-11-19T05:26:24;12.33;;;3.77;;
81627;SDS011;71036;51.102;6.514;2023-11-19T05:28:50;17.63;;;3.23;;
81627;SDS011;71036;51.102;6.514;2023-11-19T05:31:15;26.03;;;3.20;;
81627;SDS011;71036;51.102;6.514;2023-11-19T05:33:41;17.40;;;2.40;;
81627;SDS011;71036;51.102;6.514;2023-11-19T05:36:06;21.25;;;1.70;;
81627;SDS011;71036;51.102;6.514;2023-11-19T05:38:33;20.43;;;3.40;;
81627;SDS011;71036;51.102;6.514;2023-11-19T05:40:58;33.23;;;3.27;;
81627;SDS011;71036;51.102;6.514;2023-11-19T05:43:23;18.13;;;2.50;;
81627;SDS011;71036;51.102;6.514;2023-11-19T05:45:48;27.10;;;2.95;;
81627;SDS011;71036;51.102;6.514;2023-11-19T05:48:13;12.60;;;2.28;;
81627;SDS011;71036;51.102;6.514;2023-11-19T05:50:39;18.27;;;2.17;;
81627;SDS011;71036;51.102;6.514;2023-11-19T05:53:04;33.03;;;3.13;;
81627;SDS011;71036;51.102;6.514;2023-11-19T05:55:33;22.33;;;3.23;;
81627;SDS011;71036;51.102;6.514;2023-11-19T05:57:59;21.60;;;3.53;;
81627;SDS011;71036;51.102;6.514;2023-11-19T06:00:24;28.17;;;3.23;;
81627;SDS011;71036;51.102;6.514;2023-11-19T06:02:51;21.67;;;3.03;;
81627;SDS011;71036;51.102;6.514;2023-11-19T06:05:16;24.02;;;3.03;;
81627;SDS011;71036;51.102;6.514;2023-11-19T06:07:41;24.23;;;3.30;;
81627;SDS011;71036;51.102;6.514;2023-11-19T06:10:07;20.63;;;2.83;;
81627;SDS011;71036;51.102;6.514;2023-11-19T06:12:34;25.20;;;3.20;;
81627;SDS011;71036;51.102;6.514;2023-11-19T06:15:02;19.37;;;3.17;;
81627;SDS011;71036;51.102;6.514;2023-11-19T06:17:27;21.10;;;3.63;;
81627;SDS011;71036;51.102;6.514;2023-11-19T06:19:53;15.18;;;2.60;;
81627;SDS011;71036;51.102;6.514;2023-11-19T06:22:18;16.30;;;2.40;;
81627;SDS011;71036;51.102;6.514;2023-11-19T06:24:43;18.08;;;2.90;;
81627;SDS011;71036;51.102;6.514;2023-11-19T06:27:08;27.23;;;2.90;;
81627;SDS011;71036;51.102;6.514;2023-11-19T06:29:33;26.67;;;2.80;;
81627;SDS011;71036;51.102;6.514;2023-11-19T06:31:59;11.43;;;2.27;;
81627;SDS011;71036;51.102;6.514;2023-11-19T06:34:24;16.77;;;2.40;;
81627;SDS011;71036;51.102;6.514;2023-11-19T06:36:49;19.25;;;3.53;;
81627;SDS011;71036;51.102;6.514;2023-11-19T06:39:14;19.85;;;3.17;;
81627;SDS011;71036;51.102;6.514;2023-11-19T06:41:44;20.00;;;2.30;;
81627;SDS011;71036;51.102;6.514;2023-11-19T06:44:09;31.00;;;3.13;;
81627;SDS011;71036;51.102;6.514;2023-11-19T06:46:34;29.05;;;3.60;;
81627;SDS011;71036;51.102;6.514;2023-11-19T06:49:00;17.17;;;3.03;;
81627;SDS011;71036;51.102;6.514;2023-11-19T06:51:25;22.40;;;3.30;;
81627;SDS011;71036;51.102;6.514;2023-11-19T06:53:51;20.55;;;2.65;;
81627;SDS011;71036;51.102;6.514;2023-11-19T06:56:19;15.93;;;2.33;;
81627;SDS011;71036;51.102;6.514;2023-11-19T06:58:44;28.17;;;2.67;;
81627;SDS011;71036;51.102;6.514;2023-11-19T07:01:10;18.10;;;2.80;;
81627;SDS011;71036;51.102;6.514;2023-11-19T07:03:35;34.00;;;3.13;;
81627;SDS011;71036;51.102;6.514;2023-11-19T07:06:00;22.58;;;4.10;;
81627;SDS011;71036;51.102;6.514;2023-11-19T07:08:26;37.47;;;4.68;;
81627;SDS011;71036;51.102;6.514;2023-11-19T07:10:51;30.00;;;2.50;;
81627;SDS011;71036;51.102;6.514;2023-11-19T07:13:16;21.87;;;3.83;;
81627;SDS011;71036;51.102;6.514;2023-11-19T07:15:42;17.93;;;2.77;;
81627;SDS011;71036;51.102;6.514;2023-11-19T07:18:07;24.60;;;3.60;;
81627;SDS011;71036;51.102;6.514;2023-11-19T07:20:33;30.93;;;3.77;;
81627;SDS011;71036;51.102;6.514;2023-11-19T07:22:58;33.67;;;4.57;;
81627;SDS011;71036;51.102;6.514;2023-11-19T07:25:23;43.60;;;3.60;;
81627;SDS011;71036;51.102;6.514;2023-11-19T07:27:48;29.43;;;3.20;;
81627;SDS011;71036;51.102;6.514;2023-11-19T07:30:14;20.40;;;2.47;;
81627;SDS011;71036;51.102;6.514;2023-11-19T07:32:39;13.88;;;2.25;;
81627;SDS011;71036;51.102;6.514;2023-11-19T07:35:04;22.00;;;3.05;;
81627;SDS011;71036;51.102;6.514;2023-11-19T07:37:30;25.57;;;3.83;;
81627;SDS011;71036;51.102;6.514;2023-11-19T07:39:55;18.92;;;4.00;;
81627;SDS011;71036;51.102;6.514;2023-11-19T07:42:21;25.63;;;2.60;;
81627;SDS011;71036;51.102;6.514;2023-11-19T07:44:46;14.90;;;2.73;;
81627;SDS011;71036;51.102;6.514;2023-11-19T07:47:11;36.42;;;3.28;;
81627;SDS011;71036;51.102;6.514;2023-11-19T07:49:37;28.10;;;3.00;;
81627;SDS011;71036;51.102;6.514;2023-11-19T07:52:03;26.73;;;3.33;;
81627;SDS011;71036;51.102;6.514;2023-11-19T07:54:28;20.03;;;3.53;;
81627;SDS011;71036;51.102;6.514;2023-11-19T07:56:53;27.67;;;3.80;;
81627;SDS011;71036;51.102;6.514;2023-11-19T07:59:19;21.83;;;3.67;;
81627;SDS011;71036;51.102;6.514;2023-11-19T08:01:44;23.42;;;2.42;;
81627;SDS011;71036;51.102;6.514;2023-11-19T08:04:09;33.57;;;4.17;;
81627;SDS011;71036;51.102;6.514;2023-11-19T08:06:35;30.53;;;3.17;;
81627;SDS011;71036;51.102;6.514;2023-11-19T08:09:00;25.67;;;3.67;;
81627;SDS011;71036;51.102;6.514;2023-11-19T08:11:25;25.75;;;2.67;;
81627;SDS011;71036;51.102;6.514;2023-11-19T08:13:50;30.73;;;3.83;;
81627;SDS011;71036;51.102;6.514;2023-11-19T08:16:15;26.15;;;4.20;;
81627;SDS011;71036;51.102;6.514;2023-11-19T08:18:41;38.97;;;4.57;;
81627;SDS011;71036;51.102;6.514;2023-11-19T08:21:07;23.80;;;3.97;;
81627;SDS011;71036;51.102;6.514;2023-11-19T08:23:33;10.37;;;2.90;;
81627;SDS011;71036;51.102;6.514;2023-11-19T08:25:58;31.20;;;3.37;;
81627;SDS011;71036;51.102;6.514;2023-11-19T08:28:23;18.77;;;2.40;;
81627;SDS011;71036;51.102;6.514;2023-11-19T08:30:49;24.37;;;2.70;;
81627;SDS011;71036;51.102;6.514;2023-11-19T08:33:14;23.45;;;3.65;;
81627;SDS011;71036;51.102;6.514;2023-11-19T08:35:40;23.30;;;2.70;;
81627;SDS011;71036;51.102;6.514;2023-11-19T08:38:05;17.07;;;3.70;;
81627;SDS011;71036;51.102;6.514;2023-11-19T08:40:30;17.27;;;2.50;;
81627;SDS011;71036;51.102;6.514;2023-11-19T08:42:55;17.10;;;2.90;;
81627;SDS011;71036;51.102;6.514;2023-11-19T08:45:21;30.53;;;4.40;;
81627;SDS011;71036;51.102;6.514;2023-11-19T08:47:46;19.83;;;2.90;;
81627;SDS011;71036;51.102;6.514;2023-11-19T08:50:11;34.63;;;3.30;;
81627;SDS011;71036;51.102;6.514;2023-11-19T08:52:36;21.13;;;3.97;;
81627;SDS011;71036;51.102;6.514;2023-11-19T08:55:01;16.70;;;2.70;;
81627;SDS011;71036;51.102;6.514;2023-11-19T08:57:27;39.03;;;3.53;;
81627;SDS011;71036;51.102;6.514;2023-11-19T08:59:52;11.90;;;3.60;;
81627;SDS011;71036;51.102;6.514;2023-11-19T09:02:18;31.30;;;3.83;;
81627;SDS011;71036;51.102;6.514;2023-11-19T09:04:43;29.53;;;4.23;;
81627;SDS011;71036;51.102;6.514;2023-11-19T09:07:08;21.55;;;2.85;;
81627;SDS011;71036;51.102;6.514;2023-11-19T09:09:37;24.80;;;3.30;;
81627;SDS011;71036;51.102;6.514;2023-11-19T09:12:02;16.38;;;2.92;;
81627;SDS011;71036;51.102;6.514;2023-11-19T09:14:28;15.40;;;3.00;;
81627;SDS011;71036;51.102;6.514;2023-11-19T09:16:53;22.60;;;3.00;;
81627;SDS011;71036;51.102;6.514;2023-11-19T09:19:19;30.70;;;4.20;;
81627;SDS011;71036;51.102;6.514;2023-11-19T09:21:44;30.88;;;3.60;;
81627;SDS011;71036;51.102;6.514;2023-11-19T09:24:09;21.47;;;3.60;;
81627;SDS011;71036;51.102;6.514;2023-11-19T09:26:35;26.98;;;3.60;;
81627;SDS011;71036;51.102;6.514;2023-11-19T09:29:01;20.80;;;2.90;;
81627;SDS011;71036;51.102;6.514;2023-11-19T09:31:26;19.30;;;3.37;;
81627;SDS011;71036;51.102;6.514;2023-11-19T09:33:51;27.77;;;3.60;;
81627;SDS011;71036;51.102;6.514;2023-11-19T09:36:16;17.05;;;3.25;;
81627;SDS011;71036;51.102;6.514;2023-11-19T09:38:45;13.00;;;2.70;;
81627;SDS011;71036;51.102;6.514;2023-11-19T09:41:10;20.43;;;2.20;;
81627;SDS011;71036;51.102;6.514;2023-11-19T09:43:37;37.53;;;3.80;;
81627;SDS011;71036;51.102;6.514;2023-11-19T09:46:06;14.53;;;2.63;;
81627;SDS011;71036;51.102;6.514;2023-11-19T09:48:32;31.30;;;3.27;;
81627;SDS011;71036;51.102;6.514;2023-11-19T09:50:58;9.70;;;2.93;;
81627;SDS011;71036;51.102;6.514;2023-11-19T09:53:24;30.07;;;3.63;;
81627;SDS011;71036;51.102;6.514;2023-11-19T09:55:49;17.40;;;2.30;;
81627;SDS011;71036;51.102;6.514;2023-11-19T09:58:15;20.57;;;2.90;;
81627;SDS011;71036;51.102;6.514;2023-11-19T10:00:40;16.50;;;2.27;;
81627;SDS011;71036;51.102;6.514;2023-11-19T10:03:06;27.03;;;3.57;;
81627;SDS011;71036;51.102;6.514;2023-11-19T10:05:32;19.77;;;3.10;;
81627;SDS011;71036;51.102;6.514;2023-11-19T10:07:57;19.30;;;2.80;;
81627;SDS011;71036;51.102;6.514;2023-11-19T10:10:23;23.93;;;3.53;;
81627;SDS011;71036;51.102;6.514;2023-11-19T10:12:50;19.40;;;4.07;;
81627;SDS011;71036;51.102;6.514;2023-11-19T10:15:22;16.17;;;3.27;;
81627;SDS011;71036;51.102;6.514;2023-11-19T10:17:48;26.20;;;3.03;;
81627;SDS011;71036;51.102;6.514;2023-11-19T10:20:13;21.17;;;3.27;;
81627;SDS011;71036;51.102;6.514;2023-11-19T10:22:38;18.67;;;2.57;;
81627;SDS011;71036;51.102;6.514;2023-11-19T10:25:04;29.45;;;3.83;;
81627;SDS011;71036;51.102;6.514;2023-11-19T10:27:29;20.50;;;2.70;;
81627;SDS011;71036;51.102;6.514;2023-11-19T10:29:57;19.70;;;3.20;;
81627;SDS011;71036;51.102;6.514;2023-11-19T10:32:24;18.77;;;3.47;;
81627;SDS011;71036;51.102;6.514;2023-11-19T10:34:49;17.93;;;3.57;;
81627;SDS011;71036;51.102;6.514;2023-11-19T10:37:29;15.38;;;2.85;;
81627;SDS011;71036;51.102;6.514;2023-11-19T10:39:56;14.97;;;2.93;;
81627;SDS011;71036;51.102;6.514;2023-11-19T10:42:22;18.53;;;3.80;;
81627;SDS011;71036;51.102;6.514;2023-11-19T10:44:47;9.80;;;2.20;;
81627;SDS011;71036;51.102;6.514;2023-11-19T10:47:15;19.83;;;2.43;;
81627;SDS011;71036;51.102;6.514;2023-11-19T10:49:43;17.97;;;2.47;;
81627;SDS011;71036;51.102;6.514;2023-11-19T10:52:08;24.57;;;2.87;;
81627;SDS011;71036;51.102;6.514;2023-11-19T10:54:34;19.20;;;2.30;;
81627;SDS011;71036;51.102;6.514;2023-11-19T10:56:59;22.47;;;2.73;;
81627;SDS011;71036;51.102;6.514;2023-11-19T10:59:27;14.50;;;3.47;;
81627;SDS011;71036;51.102;6.514;2023-11-19T11:01:53;19.03;;;4.50;;
81627;SDS011;71036;51.102;6.514;2023-11-19T11:04:22;18.67;;;2.50;;
81627;SDS011;71036;51.102;6.514;2023-11-19T11:06:48;16.93;;;2.90;;
81627;SDS011;71036;51.102;6.514;2023-11-19T11:09:13;26.80;;;4.17;;
81627;SDS011;71036;51.102;6.514;2023-11-19T11:11:40;19.90;;;2.20;;
81627;SDS011;71036;51.102;6.514;2023-11-19T11:14:06;29.70;;;3.57;;
81627;SDS011;71036;51.102;6.514;2023-11-19T11:16:32;12.27;;;2.63;;
81627;SDS011;71036;51.102;6.514;2023-11-19T11:18:57;16.17;;;3.10;;
81627;SDS011;71036;51.102;6.514;2023-11-19T11:21:23;23.67;;;3.47;;
81627;SDS011;71036;51.102;6.514;2023-11-19T11:26:26;23.30;;;3.03;;
81627;SDS011;71036;51.102;6.514;2023-11-19T11:28:58;12.80;;;1.90;;
81627;SDS011;71036;51.102;6.514;2023-11-19T11:34:08;25.50;;;3.43;;
81627;SDS011;71036;51.102;6.514;2023-11-19T11:39:21;20.70;;;3.43;;
81627;SDS011;71036;51.102;6.514;2023-11-19T11:41:47;21.10;;;2.90;;
81627;SDS011;71036;51.102;6.514;2023-11-19T11:44:12;18.23;;;2.53;;
81627;SDS011;71036;51.102;6.514;2023-11-19T11:54:11;9.27;;;1.73;;
81627;SDS011;71036;51.102;6.514;2023-11-19T11:57:12;16.13;;;3.40;;
81627;SDS011;71036;51.102;6.514;2023-11-19T12:02:09;24.50;;;2.83;;
81627;SDS011;71036;51.102;6.514;2023-11-19T12:04:35;14.73;;;2.97;;
81627;SDS011;71036;51.102;6.514;2023-11-19T12:09:32;23.60;;;3.03;;
81627;SDS011;71036;51.102;6.514;2023-11-19T12:20:01;21.87;;;2.67;;
81627;SDS011;71036;51.102;6.514;2023-11-19T12:22:27;17.17;;;2.87;;
81627;SDS011;71036;51.102;6.514;2023-11-19T12:24:53;17.23;;;3.27;;
81627;SDS011;71036;51.102;6.514;2023-11-19T12:27:18;19.43;;;2.80;;
81627;SDS011;71036;51.102;6.514;2023-11-19T12:29:45;20.70;;;2.70;;
81627;SDS011;71036;51.102;6.514;2023-11-19T12:32:10;17.57;;;2.67;;
81627;SDS011;71036;51.102;6.514;2023-11-19T12:34:35;23.05;;;2.53;;
81627;SDS011;71036;51.102;6.514;2023-11-19T12:37:03;15.55;;;2.72;;
81627;SDS011;71036;51.102;6.514;2023-11-19T12:39:31;20.47;;;2.60;;
81627;SDS011;71036;51.102;6.514;2023-11-19T12:41:57;13.63;;;2.60;;
81627;SDS011;71036;51.102;6.514;2023-11-19T12:44:24;21.20;;;3.07;;
81627;SDS011;71036;51.102;6.514;2023-11-19T12:46:59;14.20;;;1.90;;
81627;SDS011;71036;51.102;6.514;2023-11-19T12:49:25;13.23;;;2.27;;
81627;SDS011;71036;51.102;6.514;2023-11-19T12:51:51;19.00;;;1.90;;
81627;SDS011;71036;51.102;6.514;2023-11-19T12:54:16;7.47;;;1.60;;
81627;SDS011;71036;51.102;6.514;2023-11-19T12:56:51;14.17;;;1.87;;
81627;SDS011;71036;51.102;6.514;2023-11-19T12:59:16;12.27;;;1.93;;
81627;SDS011;71036;51.102;6.514;2023-11-19T13:01:41;8.83;;;2.77;;
81627;SDS011;71036;51.102;6.514;2023-11-19T13:04:18;17.63;;;2.00;;
81627;SDS011;71036;51.102;6.514;2023-11-19T13:06:44;24.73;;;2.80;;
81627;SDS011;71036;51.102;6.514;2023-11-19T13:09:12;18.70;;;2.60;;
81627;SDS011;71036;51.102;6.514;2023-11-19T13:11:46;9.10;;;1.63;;
81627;SDS011;71036;51.102;6.514;2023-11-19T13:14:11;11.97;;;2.00;;
81627;SDS011;71036;51.102;6.514;2023-11-19T13:16:37;10.57;;;1.80;;
81627;SDS011;71036;51.102;6.514;2023-11-19T13:19:02;21.67;;;2.70;;
81627;SDS011;71036;51.102;6.514;2023-11-19T13:21:28;23.70;;;2.10;;
81627;SDS011;71036;51.102;6.514;2023-11-19T13:23:53;22.37;;;4.63;;
81627;SDS011;71036;51.102;6.514;2023-11-19T13:26:18;13.10;;;2.43;;
81627;SDS011;71036;51.102;6.514;2023-11-19T13:28:43;21.97;;;2.60;;
81627;SDS011;71036;51.102;6.514;2023-11-19T13:31:08;29.77;;;2.80;;
81627;SDS011;71036;51.102;6.514;2023-11-19T13:33:35;32.07;;;2.60;;
81627;SDS011;71036;51.102;6.514;2023-11-19T13:36:01;19.93;;;2.37;;
81627;SDS011;71036;51.102;6.514;2023-11-19T13:38:30;10.03;;;2.10;;
81627;SDS011;71036;51.102;6.514;2023-11-19T13:40:56;9.63;;;2.17;;
81627;SDS011;71036;51.102;6.514;2023-11-19T13:43:21;18.67;;;2.78;;
81627;SDS011;71036;51.102;6.514;2023-11-19T13:45:46;17.43;;;2.73;;
81627;SDS011;71036;51.102;6.514;2023-11-19T13:48:11;26.77;;;3.07;;
81627;SDS011;71036;51.102;6.514;2023-11-19T13:50:37;16.10;;;2.63;;
81627;SDS011;71036;51.102;6.514;2023-11-19T13:53:02;15.07;;;2.53;;
81627;SDS011;71036;51.102;6.514;2023-11-19T13:55:27;19.27;;;2.35;;
81627;SDS011;71036;51.102;6.514;2023-11-19T13:57:52;28.37;;;3.00;;
81627;SDS011;71036;51.102;6.514;2023-11-19T14:00:18;14.67;;;1.80;;
81627;SDS011;71036;51.102;6.514;2023-11-19T14:02:44;13.90;;;2.90;;
81627;SDS011;71036;51.102;6.514;2023-11-19T14:05:09;11.83;;;2.00;;
81627;SDS011;71036;51.102;6.514;2023-11-19T14:07:35;20.83;;;3.37;;
81627;SDS011;71036;51.102;6.514;2023-11-19T14:10:01;12.30;;;3.03;;
81627;SDS011;71036;51.102;6.514;2023-11-19T14:12:26;14.60;;;2.90;;
81627;SDS011;71036;51.102;6.514;2023-11-19T14:14:51;19.47;;;3.40;;
81627;SDS011;71036;51.102;6.514;2023-11-19T14:17:16;17.23;;;2.70;;
81627;SDS011;71036;51.102;6.514;2023-11-19T14:19:42;16.37;;;2.10;;
81627;SDS011;71036;51.102;6.514;2023-11-19T14:22:07;21.67;;;2.70;;
81627;SDS011;71036;51.102;6.514;2023-11-19T14:24:33;11.33;;;1.90;;
81627;SDS011;71036;51.102;6.514;2023-11-19T14:26:59;18.50;;;1.87;;
81627;SDS011;71036;51.102;6.514;2023-11-19T14:29:24;14.63;;;2.80;;
81627;SDS011;71036;51.102;6.514;2023-11-19T14:31:51;33.33;;;2.60;;
81627;SDS011;71036;51.102;6.514;2023-11-19T14:34:16;18.57;;;3.10;;
81627;SDS011;71036;51.102;6.514;2023-11-19T14:36:41;24.40;;;2.42;;
81627;SDS011;71036;51.102;6.514;2023-11-19T14:39:06;10.23;;;2.53;;
81627;SDS011;71036;51.102;6.514;2023-11-19T14:41:32;26.10;;;2.70;;
81627;SDS011;71036;51.102;6.514;2023-11-19T14:43:57;15.37;;;2.30;;
81627;SDS011;71036;51.102;6.514;2023-11-19T14:46:22;22.25;;;2.25;;
81627;SDS011;71036;51.102;6.514;2023-11-19T14:48:47;17.30;;;1.88;;
81627;SDS011;71036;51.102;6.514;2023-11-19T14:51:12;18.87;;;2.47;;
81627;SDS011;71036;51.102;6.514;2023-11-19T14:53:38;32.72;;;4.05;;
81627;SDS011;71036;51.102;6.514;2023-11-19T14:56:03;16.37;;;3.33;;
81627;SDS011;71036;51.102;6.514;2023-11-19T14:58:29;20.40;;;3.53;;